Time;durP1;ratioP1;P1;durP2;ratioP2;P2;SDS_P1;SDS_P2;PMS_P1;PMS_P2;Temp;Humidity;BMP_temperature;BMP_pressure;BME280_temperature;BME280_humidity;BME280_pressure;Samples;Min_cycle;Max_cycle;Signal;HPM_P1;HPM_P2
2022/07/31 00:01:53;;;;;;;0.20;0.20;;;18.60;99.90;;;;;;5132038;28;20039;-87
2022/07/31 00:04:22;;;;;;;0.05;0.05;;;18.50;99.90;;;;;;5132285;28;20050;-86
2022/07/31 00:06:50;;;;;;;0.20;0.20;;;18.50;99.90;;;;;;5131383;28;20045;-86
2022/07/31 00:09:17;;;;;;;0.20;0.20;;;18.50;99.90;;;;;;5149040;28;20122;-87
2022/07/31 00:11:45;;;;;;;0.30;0.30;;;18.50;99.90;;;;;;5148526;28;20515;-86
2022/07/31 00:14:11;;;;;;;0.20;0.20;;;18.50;99.90;;;;;;5130402;28;20511;-86
2022/07/31 00:16:38;;;;;;;0.35;0.30;;;18.40;99.90;;;;;;5131736;28;20035;-86
2022/07/31 00:19:05;;;;;;;0.20;0.20;;;18.40;99.90;;;;;;5131657;28;20047;-87
2022/07/31 00:21:32;;;;;;;0.20;0.20;;;18.40;99.90;;;;;;5149121;28;20096;-87
2022/07/31 00:23:58;;;;;;;0.88;0.40;;;18.40;99.90;;;;;;5131562;28;20511;-86
2022/07/31 00:26:25;;;;;;;0.28;0.20;;;18.40;99.90;;;;;;5165564;27;20052;-85
2022/07/31 00:28:52;;;;;;;1.52;0.75;;;18.40;99.90;;;;;;5130846;28;20112;-87
2022/07/31 00:31:18;;;;;;;0.50;0.40;;;18.40;99.90;;;;;;5148534;28;20129;-86
2022/07/31 00:33:45;;;;;;;0.32;0.28;;;18.30;99.90;;;;;;5147790;28;20434;-86
2022/07/31 00:36:12;;;;;;;0.20;0.20;;;18.30;99.90;;;;;;5148373;28;20127;-85
2022/07/31 00:38:39;;;;;;;0.20;0.20;;;18.30;99.90;;;;;;5131432;28;20138;-86
2022/07/31 00:41:05;;;;;;;1.67;0.50;;;18.30;99.90;;;;;;5130534;28;20111;-86
2022/07/31 00:43:32;;;;;;;0.13;0.13;;;18.30;99.90;;;;;;5131473;28;20047;-87
2022/07/31 00:45:59;;;;;;;0.20;0.20;;;18.30;99.90;;;;;;5130475;28;20051;-87
2022/07/31 00:48:26;;;;;;;0.52;0.30;;;18.30;99.90;;;;;;5148083;28;20100;-86
2022/07/31 00:50:53;;;;;;;0.63;0.30;;;18.30;99.90;;;;;;5147694;28;20035;-88
2022/07/31 00:53:19;;;;;;;0.35;0.30;;;18.30;99.90;;;;;;5147908;28;20097;-87
2022/07/31 00:55:46;;;;;;;0.40;0.30;;;18.40;99.90;;;;;;5131264;28;20035;-87
2022/07/31 00:58:13;;;;;;;0.47;0.40;;;18.40;99.90;;;;;;5131189;28;20391;-85
2022/07/31 01:00:39;;;;;;;0.20;0.20;;;18.30;99.90;;;;;;5165160;27;20147;-85
2022/07/31 01:03:06;;;;;;;0.30;0.30;;;18.40;99.90;;;;;;5130337;28;20104;-86
2022/07/31 01:05:33;;;;;;;0.20;0.20;;;18.40;99.90;;;;;;5130606;28;20093;-86
2022/07/31 01:08:00;;;;;;;0.20;0.20;;;18.30;99.90;;;;;;5130094;28;20036;-87
2022/07/31 01:10:51;;;;;;;0.17;0.17;;;18.40;99.90;;;;;;5130182;28;20047;-87
2022/07/31 01:13:31;;;;;;;0.52;0.38;;;18.30;99.90;;;;;;5130648;28;20144;-85
2022/07/31 01:16:02;;;;;;;0.20;0.20;;;18.30;99.90;;;;;;5147461;28;20046;-85
2022/07/31 01:18:31;;;;;;;0.63;0.38;;;18.30;99.90;;;;;;5130785;28;20032;-87
2022/07/31 01:21:04;;;;;;;0.32;0.30;;;18.20;99.90;;;;;;5130071;28;20446;-86
2022/07/31 01:24:07;;;;;;;0.25;0.25;;;18.30;99.90;;;;;;5130792;28;20039;-85
2022/07/31 01:26:52;;;;;;;0.32;0.30;;;18.20;99.90;;;;;;5088910;28;20036;-87
2022/07/31 01:29:32;;;;;;;0.35;0.30;;;18.20;99.90;;;;;;5126454;28;20048;-86
2022/07/31 01:32:05;;;;;;;0.45;0.30;;;18.20;99.90;;;;;;5129848;28;20546;-85
2022/07/31 01:34:57;;;;;;;0.28;0.28;;;18.10;99.90;;;;;;5147649;28;20036;-87
2022/07/31 01:37:32;;;;;;;0.70;0.40;;;18.10;99.90;;;;;;5130561;28;20076;-87
2022/07/31 01:40:12;;;;;;;0.85;0.50;;;17.90;99.90;;;;;;5130419;28;20039;-86
2022/07/31 01:42:43;;;;;;;0.55;0.40;;;18.00;99.90;;;;;;5130335;28;20091;-85
2022/07/31 01:45:13;;;;;;;0.50;0.50;;;18.00;99.90;;;;;;5129540;28;20051;-87
2022/07/31 01:47:41;;;;;;;1.00;0.65;;;17.90;99.90;;;;;;5129851;28;20412;-87
2022/07/31 01:50:09;;;;;;;0.82;0.60;;;17.90;99.90;;;;;;5163412;27;20039;-86
2022/07/31 01:52:39;;;;;;;0.50;0.50;;;17.90;99.90;;;;;;5164405;27;20040;-87
2022/07/31 01:55:08;;;;;;;0.60;0.60;;;17.80;99.90;;;;;;5146781;28;20043;-87
2022/07/31 01:57:37;;;;;;;0.47;0.40;;;17.70;99.90;;;;;;5147021;28;20124;-86
2022/07/31 02:00:08;;;;;;;1.02;0.55;;;17.70;99.90;;;;;;5146475;28;20035;-87
2022/07/31 02:02:36;;;;;;;0.20;0.20;;;17.60;99.90;;;;;;5163901;27;20071;-86
2022/07/31 02:05:06;;;;;;;0.45;0.40;;;17.50;99.90;;;;;;5146680;28;20062;-87
2022/07/31 02:07:36;;;;;;;0.30;0.30;;;17.50;99.90;;;;;;5146711;28;20185;-85
2022/07/31 02:10:04;;;;;;;0.25;0.25;;;17.40;99.90;;;;;;5129049;28;20058;-87
2022/07/31 02:12:32;;;;;;;0.30;0.30;;;17.30;99.90;;;;;;5130211;28;20045;-85
2022/07/31 02:15:00;;;;;;;0.50;0.40;;;17.20;99.90;;;;;;5129607;28;20100;-86
2022/07/31 02:17:28;;;;;;;0.20;0.20;;;17.20;99.90;;;;;;5146460;28;20035;-85
2022/07/31 02:19:57;;;;;;;0.10;0.10;;;17.20;99.90;;;;;;5146377;28;20039;-85
2022/07/31 02:22:24;;;;;;;0.38;0.30;;;17.20;99.90;;;;;;5146038;28;20047;-86
2022/07/31 02:24:51;;;;;;;0.20;0.20;;;17.20;99.90;;;;;;5129285;28;20040;-88
2022/07/31 02:27:18;;;;;;;0.30;0.30;;;17.20;99.90;;;;;;5145975;28;20046;-86
2022/07/31 02:29:47;;;;;;;0.32;0.22;;;17.30;99.90;;;;;;5146038;28;20071;-85
2022/07/31 02:32:16;;;;;;;0.28;0.28;;;17.30;99.90;;;;;;5145651;28;20044;-86
2022/07/31 02:34:44;;;;;;;0.22;0.22;;;17.30;99.90;;;;;;5129780;28;20036;-87
2022/07/31 02:37:12;;;;;;;0.30;0.30;;;17.30;99.90;;;;;;5145959;28;20049;-87
2022/07/31 02:39:40;;;;;;;0.22;0.22;;;17.30;99.90;;;;;;5167590;27;20046;-86
2022/07/31 02:42:08;;;;;;;0.57;0.40;;;17.30;99.90;;;;;;5132861;28;20130;-85
2022/07/31 02:44:37;;;;;;;0.30;0.28;;;17.30;99.90;;;;;;5150742;28;20063;-85
2022/07/31 02:47:05;;;;;;;0.57;0.30;;;17.40;99.90;;;;;;5132511;28;20063;-87
2022/07/31 02:49:34;;;;;;;0.43;0.30;;;17.40;99.90;;;;;;5149846;28;20044;-85
2022/07/31 02:52:03;;;;;;;0.38;0.30;;;17.40;99.90;;;;;;5132748;28;20047;-86
2022/07/31 02:54:30;;;;;;;0.20;0.20;;;17.40;99.90;;;;;;5150092;28;20054;-85
2022/07/31 02:56:58;;;;;;;0.30;0.30;;;17.40;99.90;;;;;;5133219;28;20036;-87
2022/07/31 02:59:24;;;;;;;0.20;0.20;;;17.50;99.90;;;;;;5133148;28;20107;-86
2022/07/31 03:01:51;;;;;;;0.85;0.50;;;17.50;99.90;;;;;;5150143;28;20047;-85
2022/07/31 03:04:18;;;;;;;0.17;0.10;;;17.50;99.90;;;;;;5149766;28;20040;-85
2022/07/31 03:06:47;;;;;;;0.43;0.40;;;17.50;99.90;;;;;;5132447;28;20427;-85
2022/07/31 03:09:14;;;;;;;0.52;0.38;;;17.50;99.90;;;;;;5149822;28;20044;-87
2022/07/31 03:11:44;;;;;;;0.20;0.20;;;17.50;99.90;;;;;;5166998;27;20027;-87
2022/07/31 03:14:12;;;;;;;0.30;0.30;;;17.50;99.90;;;;;;5149905;28;20047;-87
2022/07/31 03:16:39;;;;;;;0.52;0.40;;;17.50;99.90;;;;;;5150330;28;20477;-85
2022/07/31 03:19:07;;;;;;;0.13;0.13;;;17.50;99.90;;;;;;5149880;28;20043;-87
2022/07/31 03:21:35;;;;;;;0.55;0.43;;;17.50;99.90;;;;;;5150674;28;20039;-88
2022/07/31 03:24:02;;;;;;;0.65;0.45;;;17.60;99.90;;;;;;5133003;28;20057;-87
2022/07/31 03:26:29;;;;;;;0.30;0.30;;;17.50;99.90;;;;;;5132480;28;20043;-85
2022/07/31 03:28:59;;;;;;;0.32;0.30;;;17.50;99.90;;;;;;5149685;28;20043;-88
2022/07/31 03:31:25;;;;;;;0.65;0.35;;;17.50;99.90;;;;;;5132611;28;20499;-85
2022/07/31 03:33:52;;;;;;;1.48;0.57;;;17.50;99.90;;;;;;5149695;28;20066;-87
2022/07/31 03:36:19;;;;;;;0.17;0.17;;;17.50;99.90;;;;;;5149238;28;20123;-87
2022/07/31 03:38:46;;;;;;;0.55;0.40;;;17.50;99.90;;;;;;5150026;28;20114;-88
2022/07/31 03:41:12;;;;;;;1.10;0.50;;;17.60;99.90;;;;;;5149281;28;20082;-86
2022/07/31 03:43:41;;;;;;;0.65;0.30;;;17.50;99.90;;;;;;5132123;28;20096;-87
2022/07/31 03:46:09;;;;;;;0.47;0.30;;;17.50;99.90;;;;;;5131991;28;20087;-86
2022/07/31 03:48:36;;;;;;;0.30;0.25;;;17.50;99.90;;;;;;5149007;28;20044;-85
2022/07/31 03:51:03;;;;;;;0.40;0.40;;;17.50;99.90;;;;;;5149639;28;20176;-86
2022/07/31 03:53:31;;;;;;;0.32;0.32;;;17.50;99.90;;;;;;5166437;27;20671;-85
2022/07/31 03:55:59;;;;;;;0.20;0.20;;;17.50;99.90;;;;;;5149277;28;20048;-85
2022/07/31 03:58:25;;;;;;;0.43;0.30;;;17.50;99.90;;;;;;5149194;28;20074;-87
2022/07/31 04:00:52;;;;;;;0.57;0.52;;;17.40;99.90;;;;;;5149814;28;20085;-88
2022/07/31 04:03:19;;;;;;;0.20;0.20;;;17.50;99.90;;;;;;5132486;28;20043;-87
2022/07/31 04:05:46;;;;;;;0.30;0.30;;;17.50;99.90;;;;;;5149697;28;20039;-85
2022/07/31 04:08:14;;;;;;;0.30;0.30;;;17.50;99.90;;;;;;5132480;28;20100;-87
2022/07/31 04:10:41;;;;;;;0.40;0.32;;;17.50;99.90;;;;;;5148909;28;20042;-86
2022/07/31 04:13:08;;;;;;;0.52;0.38;;;17.50;99.90;;;;;;5132352;28;20559;-86
2022/07/31 04:15:34;;;;;;;0.30;0.30;;;17.50;99.90;;;;;;5132437;28;20046;-87
2022/07/31 04:18:01;;;;;;;0.52;0.30;;;17.50;99.90;;;;;;5132197;28;20036;-86
2022/07/31 04:20:30;;;;;;;0.17;0.15;;;17.40;99.90;;;;;;5132141;28;20040;-87
2022/07/31 04:22:57;;;;;;;0.20;0.20;;;17.40;99.90;;;;;;5132251;28;20038;-85
2022/07/31 04:25:24;;;;;;;0.30;0.30;;;17.40;99.90;;;;;;5131672;28;20040;-87
2022/07/31 04:27:50;;;;;;;0.20;0.20;;;17.40;99.90;;;;;;5131990;28;20079;-87
2022/07/31 04:30:17;;;;;;;0.57;0.40;;;17.40;99.90;;;;;;5131690;28;20065;-86
2022/07/31 04:32:44;;;;;;;0.40;0.30;;;17.40;99.90;;;;;;5148946;28;20036;-86
2022/07/31 04:35:12;;;;;;;0.20;0.20;;;17.40;99.90;;;;;;5132172;28;20035;-88
2022/07/31 04:37:39;;;;;;;0.20;0.20;;;17.40;99.90;;;;;;5131470;28;20098;-85
2022/07/31 04:40:06;;;;;;;0.73;0.28;;;17.40;99.90;;;;;;5166191;27;20075;-86
2022/07/31 04:42:33;;;;;;;0.10;0.10;;;17.50;99.90;;;;;;5148461;28;20040;-87
2022/07/31 04:45:00;;;;;;;0.40;0.30;;;17.50;99.90;;;;;;5131532;28;20044;-88
2022/07/31 04:47:26;;;;;;;0.55;0.35;;;17.60;99.90;;;;;;5131524;28;20149;-85
2022/07/31 04:49:53;;;;;;;0.45;0.20;;;17.60;99.90;;;;;;5148893;28;20047;-87
2022/07/31 04:52:20;;;;;;;0.60;0.38;;;17.60;99.90;;;;;;5165555;27;20122;-87
2022/07/31 04:54:46;;;;;;;0.68;0.45;;;17.70;99.90;;;;;;5131223;28;20050;-86
2022/07/31 04:57:13;;;;;;;0.63;0.32;;;17.80;99.90;;;;;;5131144;28;20089;-85
2022/07/31 04:59:40;;;;;;;0.40;0.35;;;17.80;99.90;;;;;;5130502;28;20579;-87
2022/07/31 05:02:06;;;;;;;0.43;0.30;;;17.90;99.90;;;;;;5148568;28;20069;-86
2022/07/31 05:04:33;;;;;;;0.55;0.20;;;17.90;99.90;;;;;;5131458;28;20050;-87
2022/07/31 05:07:00;;;;;;;0.82;0.40;;;18.10;99.90;;;;;;5165348;27;20047;-86
2022/07/31 05:09:32;;;;;;;0.50;0.40;;;18.10;99.90;;;;;;5130782;28;20043;-85
2022/07/31 05:11:58;;;;;;;0.30;0.30;;;18.30;99.90;;;;;;5130921;28;20042;-87
2022/07/31 05:14:25;;;;;;;0.82;0.50;;;18.30;99.90;;;;;;5147686;28;20047;-87
2022/07/31 05:16:52;;;;;;;0.50;0.40;;;18.30;99.90;;;;;;5148215;28;20138;-87
2022/07/31 05:19:19;;;;;;;0.75;0.45;;;18.40;99.90;;;;;;5130921;28;20122;-87
2022/07/31 05:21:46;;;;;;;0.63;0.40;;;18.40;99.90;;;;;;5148485;28;20039;-86
2022/07/31 05:24:12;;;;;;;0.85;0.60;;;18.40;99.90;;;;;;5130608;28;20138;-88
2022/07/31 05:26:39;;;;;;;0.50;0.32;;;18.30;99.90;;;;;;5131141;28;20826;-87
2022/07/31 05:29:06;;;;;;;0.38;0.38;;;18.30;99.90;;;;;;5147737;28;20516;-87
2022/07/31 05:31:33;;;;;;;0.60;0.50;;;18.30;99.90;;;;;;5147531;28;20039;-87
2022/07/31 05:33:59;;;;;;;1.10;0.43;;;18.30;99.90;;;;;;5148150;28;20092;-87
2022/07/31 05:36:26;;;;;;;0.30;0.30;;;18.30;99.90;;;;;;5130762;28;20480;-85
2022/07/31 05:38:53;;;;;;;0.40;0.40;;;18.40;99.90;;;;;;5147886;28;20427;-86
2022/07/31 05:41:20;;;;;;;1.55;0.55;;;18.50;99.90;;;;;;5164994;27;20038;-86
2022/07/31 05:43:47;;;;;;;0.32;0.30;;;18.60;99.90;;;;;;5147730;28;20477;-85
2022/07/31 05:46:16;;;;;;;0.40;0.30;;;18.60;99.90;;;;;;5164671;27;20138;-87
2022/07/31 05:48:43;;;;;;;1.05;0.50;;;18.60;99.90;;;;;;5146470;28;20079;-86
2022/07/31 05:51:12;;;;;;;0.40;0.40;;;18.70;99.90;;;;;;5147526;28;20032;-85
2022/07/31 05:53:39;;;;;;;0.57;0.32;;;18.70;99.90;;;;;;5164247;27;20051;-85
2022/07/31 05:56:06;;;;;;;0.52;0.40;;;18.80;99.90;;;;;;5130334;28;20036;-87
2022/07/31 05:58:33;;;;;;;0.88;0.40;;;18.90;99.90;;;;;;5130031;28;20066;-87
2022/07/31 06:01:00;;;;;;;0.20;0.20;;;18.90;99.90;;;;;;5146924;28;20031;-87
2022/07/31 06:03:27;;;;;;;1.05;0.45;;;18.90;99.90;;;;;;5130357;28;20039;-87
2022/07/31 06:05:55;;;;;;;0.40;0.25;;;19.00;99.90;;;;;;5147269;28;20032;-85
2022/07/31 06:08:22;;;;;;;0.35;0.35;;;19.10;99.90;;;;;;5147474;28;20068;-87
2022/07/31 06:10:49;;;;;;;0.40;0.40;;;19.10;99.90;;;;;;5129702;28;20081;-88
2022/07/31 06:13:15;;;;;;;1.85;0.65;;;19.20;99.90;;;;;;5146442;28;20035;-88
2022/07/31 06:15:42;;;;;;;0.30;0.30;;;19.20;99.90;;;;;;5129743;28;20035;-88
2022/07/31 06:18:09;;;;;;;0.43;0.32;;;19.20;99.90;;;;;;5130266;28;20521;-87
2022/07/31 06:20:35;;;;;;;0.60;0.40;;;19.10;99.90;;;;;;5146882;28;20043;-88
2022/07/31 06:23:02;;;;;;;0.70;0.60;;;19.30;99.90;;;;;;5147388;28;20377;-87
2022/07/31 06:25:29;;;;;;;0.30;0.30;;;19.10;99.90;;;;;;5147230;28;20050;-87
2022/07/31 06:27:56;;;;;;;0.75;0.47;;;19.10;99.90;;;;;;5129823;28;20043;-88
2022/07/31 06:30:23;;;;;;;0.77;0.50;;;19.10;99.90;;;;;;5129752;28;20048;-85
2022/07/31 06:32:49;;;;;;;0.80;0.55;;;19.10;99.90;;;;;;5146537;28;20089;-85
2022/07/31 06:35:16;;;;;;;0.75;0.47;;;19.10;99.90;;;;;;5130168;28;20042;-87
2022/07/31 06:37:43;;;;;;;0.47;0.40;;;19.10;99.90;;;;;;5147093;28;20048;-87
2022/07/31 06:40:11;;;;;;;0.40;0.28;;;19.10;99.90;;;;;;5146967;28;20131;-85
2022/07/31 06:42:38;;;;;;;0.65;0.38;;;19.20;99.90;;;;;;5146680;28;20039;-86
2022/07/31 06:45:05;;;;;;;0.82;0.45;;;19.20;99.90;;;;;;5129794;28;20579;-87
2022/07/31 06:47:31;;;;;;;0.70;0.55;;;19.30;99.90;;;;;;5129333;28;20050;-86
2022/07/31 06:49:58;;;;;;;0.55;0.40;;;19.30;99.90;;;;;;5129829;28;20039;-88
2022/07/31 06:52:25;;;;;;;0.47;0.47;;;19.30;99.90;;;;;;5163755;28;20055;-86
2022/07/31 06:54:52;;;;;;;0.22;0.22;;;19.30;99.90;;;;;;5129466;28;20044;-88
2022/07/31 06:57:18;;;;;;;0.68;0.35;;;19.40;99.90;;;;;;5146832;28;20036;-85
2022/07/31 06:59:46;;;;;;;0.55;0.38;;;19.50;99.90;;;;;;5129608;28;20179;-87
2022/07/31 07:02:13;;;;;;;0.60;0.50;;;19.50;99.90;;;;;;5129746;28;20051;-85
2022/07/31 07:04:39;;;;;;;0.52;0.45;;;19.60;99.90;;;;;;5146274;28;20051;-88
2022/07/31 07:07:06;;;;;;;0.32;0.30;;;19.60;99.90;;;;;;5129875;28;20048;-88
2022/07/31 07:09:33;;;;;;;0.45;0.30;;;19.70;99.90;;;;;;5130081;28;20051;-86
2022/07/31 07:12:00;;;;;;;0.20;0.20;;;19.80;99.90;;;;;;5146716;28;20176;-87
2022/07/31 07:14:26;;;;;;;0.45;0.40;;;19.80;99.90;;;;;;5129360;28;20126;-88
2022/07/31 07:16:53;;;;;;;0.25;0.20;;;20.00;99.90;;;;;;5146446;28;20027;-88
2022/07/31 07:19:20;;;;;;;0.30;0.30;;;20.00;99.90;;;;;;5146807;28;20036;-88
2022/07/31 07:21:47;;;;;;;0.35;0.30;;;20.10;99.90;;;;;;5129963;28;20039;-87
2022/07/31 07:24:14;;;;;;;0.47;0.35;;;20.20;99.90;;;;;;5148679;28;20047;-86
2022/07/31 07:26:40;;;;;;;0.30;0.20;;;20.20;99.90;;;;;;5132989;28;20044;-85
2022/07/31 07:29:09;;;;;;;0.55;0.25;;;20.30;99.90;;;;;;5133187;28;20043;-88
2022/07/31 07:31:36;;;;;;;0.43;0.40;;;20.30;99.90;;;;;;5150300;28;20042;-86
2022/07/31 07:34:05;;;;;;;0.45;0.32;;;20.40;99.90;;;;;;5150049;28;20081;-85
2022/07/31 07:36:32;;;;;;;0.63;0.30;;;20.40;99.90;;;;;;5149837;28;20035;-85
2022/07/31 07:38:59;;;;;;;0.20;0.20;;;20.40;99.90;;;;;;5132888;28;20083;-88
2022/07/31 07:41:26;;;;;;;0.52;0.38;;;20.40;99.90;;;;;;5133123;28;20082;-87
2022/07/31 07:43:55;;;;;;;0.30;0.30;;;20.40;99.90;;;;;;5149808;28;20043;-87
2022/07/31 07:46:25;;;;;;;0.40;0.30;;;20.40;99.90;;;;;;5149131;28;20071;-85
2022/07/31 07:48:54;;;;;;;1.52;0.40;;;20.40;99.90;;;;;;5166546;27;20101;-88
2022/07/31 07:51:21;;;;;;;0.40;0.38;;;20.50;99.90;;;;;;5149724;28;20055;-87
2022/07/31 07:53:48;;;;;;;0.20;0.20;;;20.50;99.90;;;;;;5167191;27;20067;-88
2022/07/31 07:56:15;;;;;;;0.50;0.40;;;20.60;99.90;;;;;;5167016;27;20280;-88
2022/07/31 07:58:42;;;;;;;0.30;0.30;;;20.60;99.90;;;;;;5166598;27;20032;-86
2022/07/31 08:01:09;;;;;;;0.52;0.38;;;20.70;99.90;;;;;;5149432;28;20028;-86
2022/07/31 08:03:35;;;;;;;1.00;0.50;;;20.70;99.90;;;;;;5132516;28;20047;-88
2022/07/31 08:06:02;;;;;;;0.35;0.32;;;20.80;99.90;;;;;;5148993;28;20057;-85
2022/07/31 08:08:29;;;;;;;0.40;0.32;;;20.80;99.90;;;;;;5149985;28;20036;-86
2022/07/31 08:10:56;;;;;;;0.82;0.40;;;20.90;99.90;;;;;;5148851;28;20039;-86
2022/07/31 08:13:23;;;;;;;0.95;0.70;;;20.90;99.90;;;;;;5149423;28;20036;-86
2022/07/31 08:15:50;;;;;;;0.55;0.40;;;20.90;99.90;;;;;;5132019;28;20038;-88
2022/07/31 08:18:17;;;;;;;0.63;0.43;;;20.90;99.90;;;;;;5149796;28;20396;-88
2022/07/31 08:20:43;;;;;;;0.38;0.38;;;20.90;99.90;;;;;;5132223;28;20510;-87
2022/07/31 08:23:13;;;;;;;0.65;0.40;;;20.90;99.90;;;;;;5149511;28;20400;-88
2022/07/31 08:25:39;;;;;;;0.65;0.38;;;21.00;99.90;;;;;;5149149;28;20124;-86
2022/07/31 08:28:06;;;;;;;0.75;0.57;;;21.00;99.90;;;;;;5132333;28;20085;-87
2022/07/31 08:30:34;;;;;;;0.45;0.45;;;21.00;99.90;;;;;;5149114;28;20044;-86
2022/07/31 08:33:01;;;;;;;0.68;0.40;;;21.00;99.90;;;;;;5148580;28;20043;-87
2022/07/31 08:35:28;;;;;;;0.47;0.40;;;21.00;99.90;;;;;;5147990;28;20043;-86
2022/07/31 08:37:54;;;;;;;0.28;0.28;;;21.10;99.90;;;;;;5148714;28;20039;-86
2022/07/31 08:40:22;;;;;;;0.85;0.50;;;21.20;99.90;;;;;;5132104;28;20043;-88
2022/07/31 08:42:49;;;;;;;0.65;0.38;;;21.30;99.90;;;;;;5131409;28;20035;-86
2022/07/31 08:45:16;;;;;;;0.73;0.45;;;21.50;99.90;;;;;;5148801;28;20054;-86
2022/07/31 08:47:46;;;;;;;1.02;0.70;;;21.80;99.90;;;;;;5130883;28;20055;-86
2022/07/31 08:50:14;;;;;;;0.57;0.38;;;22.10;99.90;;;;;;5148567;28;20122;-87
2022/07/31 08:52:44;;;;;;;0.90;0.60;;;22.40;99.90;;;;;;5131785;28;20139;-86
2022/07/31 08:55:11;;;;;;;0.75;0.50;;;22.50;99.90;;;;;;5131501;28;20027;-87
2022/07/31 08:57:38;;;;;;;0.57;0.47;;;22.70;99.90;;;;;;5148783;28;20068;-88
2022/07/31 09:00:11;;;;;;;0.52;0.52;;;22.80;99.90;;;;;;5148243;28;20500;-87
2022/07/31 09:02:41;;;;;;;1.10;0.65;;;22.90;99.90;;;;;;5165831;27;20047;-85
2022/07/31 09:05:09;;;;;;;1.60;0.50;;;22.90;99.90;;;;;;5147962;28;20084;-86
2022/07/31 09:07:35;;;;;;;0.90;0.63;;;22.90;99.90;;;;;;5131239;28;20146;-87
2022/07/31 09:10:07;;;;;;;0.65;0.43;;;22.90;99.90;;;;;;5130668;28;20122;-87
2022/07/31 09:12:34;;;;;;;0.38;0.30;;;23.00;99.90;;;;;;5131387;28;20396;-86
2022/07/31 09:15:01;;;;;;;0.57;0.45;;;22.90;99.90;;;;;;5131196;28;20035;-87
2022/07/31 09:17:35;;;;;;;0.47;0.40;;;22.90;99.90;;;;;;5130913;28;20043;-87
2022/07/31 09:20:04;;;;;;;0.52;0.38;;;22.80;99.90;;;;;;5148097;28;20047;-87
2022/07/31 09:22:31;;;;;;;0.35;0.35;;;22.80;99.90;;;;;;5148096;28;20039;-86
2022/07/31 09:25:10;;;;;;;0.80;0.50;;;22.70;99.90;;;;;;5130368;28;20126;-87
2022/07/31 09:27:37;;;;;;;0.93;0.60;;;22.40;99.90;;;;;;5130964;28;20082;-87
2022/07/31 09:30:06;;;;;;;0.85;0.60;;;22.20;99.90;;;;;;5130189;28;20027;-87
2022/07/31 09:32:32;;;;;;;0.45;0.45;;;22.10;99.90;;;;;;5147678;28;20040;-87
2022/07/31 09:35:11;;;;;;;0.77;0.57;;;21.90;99.90;;;;;;5130858;28;20043;-86
2022/07/31 09:37:38;;;;;;;1.60;0.80;;;21.70;99.90;;;;;;5130562;28;20711;-87
2022/07/31 09:40:07;;;;;;;0.73;0.60;;;21.50;99.90;;;;;;5130166;28;20035;-87
2022/07/31 09:42:41;;;;;;;0.90;0.73;;;21.40;99.90;;;;;;5130686;28;20441;-86
2022/07/31 09:45:22;;;;;;;0.63;0.50;;;21.30;99.90;;;;;;5129754;28;20054;-87
2022/07/31 09:48:04;;;;;;;2.33;0.70;;;21.10;99.90;;;;;;5164207;27;20048;-88
2022/07/31 09:50:30;;;;;;;1.15;0.60;;;20.90;99.90;;;;;;5130508;28;20493;-85
2022/07/31 09:52:59;;;;;;;0.95;0.57;;;20.80;99.90;;;;;;5164408;27;20119;-88
2022/07/31 09:55:26;;;;;;;1.30;0.70;;;20.80;99.90;;;;;;5131069;28;20071;-85
2022/07/31 09:57:58;;;;;;;0.80;0.50;;;20.70;99.90;;;;;;5130345;28;20035;-85
2022/07/31 10:00:26;;;;;;;0.80;0.60;;;20.70;99.90;;;;;;5164389;27;20058;-86
2022/07/31 10:02:54;;;;;;;0.73;0.50;;;20.70;99.90;;;;;;5130481;28;20411;-85
2022/07/31 10:05:26;;;;;;;0.40;0.32;;;20.70;99.90;;;;;;5129955;28;20107;-86
2022/07/31 10:07:56;;;;;;;0.73;0.50;;;20.70;99.90;;;;;;5146996;28;20040;-85
2022/07/31 10:10:23;;;;;;;0.88;0.55;;;20.60;99.90;;;;;;5130417;28;20039;-85
2022/07/31 10:12:53;;;;;;;0.47;0.40;;;20.60;99.90;;;;;;5147303;28;20043;-86
2022/07/31 10:15:22;;;;;;;0.85;0.60;;;20.60;99.90;;;;;;5130565;28;20039;-88
2022/07/31 10:17:51;;;;;;;0.93;0.60;;;20.60;99.90;;;;;;5147504;28;20042;-86
2022/07/31 10:20:22;;;;;;;0.68;0.40;;;20.60;99.90;;;;;;5129686;28;20047;-86
2022/07/31 10:22:55;;;;;;;0.82;0.65;;;20.50;99.90;;;;;;5146080;28;20078;-86
2022/07/31 10:25:27;;;;;;;0.88;0.60;;;20.50;99.90;;;;;;5146919;28;20136;-88
2022/07/31 10:27:58;;;;;;;1.30;0.50;;;20.40;99.90;;;;;;5130205;28;20126;-86
2022/07/31 10:30:24;;;;;;;0.88;0.60;;;20.40;99.90;;;;;;5146232;28;20088;-86
2022/07/31 10:32:52;;;;;;;2.80;1.08;;;20.30;99.90;;;;;;5147710;28;20040;-88
2022/07/31 10:35:21;;;;;;;1.05;0.60;;;20.20;99.90;;;;;;5147059;28;20036;-89
2022/07/31 10:38:00;;;;;;;1.25;0.82;;;20.10;99.90;;;;;;5146430;28;20377;-88
2022/07/31 10:40:35;;;;;;;0.98;0.77;;;20.10;99.90;;;;;;5130101;28;20130;-89
2022/07/31 10:43:38;;;;;;;0.65;0.47;;;20.10;99.90;;;;;;5129960;28;20134;-89
2022/07/31 10:46:05;;;;;;;0.30;0.30;;;20.10;99.90;;;;;;5129417;28;20059;-87
2022/07/31 10:48:32;;;;;;;0.63;0.60;;;20.20;99.90;;;;;;5129959;28;20419;-86
2022/07/31 10:51:08;;;;;;;0.85;0.55;;;20.30;99.90;;;;;;5129845;28;20035;-88
2022/07/31 10:53:35;;;;;;;0.93;0.52;;;20.40;99.90;;;;;;5146894;28;20051;-88
2022/07/31 10:56:04;;;;;;;0.90;0.60;;;20.30;99.90;;;;;;5147041;28;20035;-88
2022/07/31 10:58:31;;;;;;;0.57;0.57;;;20.40;99.90;;;;;;5147927;28;20035;-88
2022/07/31 11:01:06;;;;;;;0.85;0.70;;;20.40;99.90;;;;;;5168276;27;20049;-88
2022/07/31 11:03:43;;;;;;;1.08;0.70;;;20.50;99.90;;;;;;5133850;28;20058;-86
2022/07/31 11:06:11;;;;;;;0.85;0.63;;;20.50;99.90;;;;;;5133600;28;20093;-87
2022/07/31 11:08:41;;;;;;;0.82;0.65;;;20.50;99.90;;;;;;5150946;28;20096;-86
2022/07/31 11:11:09;;;;;;;1.38;0.70;;;20.60;99.90;;;;;;5167559;27;20043;-88
2022/07/31 11:13:54;;;;;;;0.88;0.60;;;20.60;99.90;;;;;;5150230;28;20066;-86
2022/07/31 11:16:21;;;;;;;1.02;0.77;;;20.50;99.90;;;;;;5132993;28;20126;-87
2022/07/31 11:19:07;;;;;;;1.15;0.77;;;20.40;99.90;;;;;;5150441;28;20036;-86
2022/07/31 11:21:36;;;;;;;0.75;0.55;;;20.40;99.90;;;;;;5150703;28;20043;-88
2022/07/31 11:24:22;;;;;;;0.90;0.52;;;20.40;99.90;;;;;;5133878;28;20036;-87
2022/07/31 11:26:53;;;;;;;1.35;0.57;;;20.40;99.90;;;;;;5150508;28;20043;-87
2022/07/31 11:29:34;;;;;;;1.33;0.90;;;20.40;99.90;;;;;;5132731;28;20035;-85
2022/07/31 11:32:04;;;;;;;1.00;0.68;;;20.40;99.90;;;;;;5133061;28;20079;-86
2022/07/31 11:34:42;;;;;;;0.77;0.55;;;20.30;99.90;;;;;;5166928;27;20031;-85
2022/07/31 11:37:16;;;;;;;0.90;0.55;;;20.10;99.90;;;;;;5165088;27;20031;-87
2022/07/31 11:39:43;;;;;;;0.52;0.45;;;20.20;99.90;;;;;;5165847;27;20047;-88
2022/07/31 11:42:09;;;;;;;1.45;0.90;;;20.20;99.90;;;;;;5150030;28;20082;-87
2022/07/31 11:44:36;;;;;;;1.02;0.70;;;20.20;99.90;;;;;;5150113;28;20075;-86
2022/07/31 11:47:03;;;;;;;0.85;0.57;;;20.10;99.90;;;;;;5149242;28;20130;-87
2022/07/31 11:49:34;;;;;;;0.43;0.43;;;20.10;99.90;;;;;;5149705;28;20044;-87
2022/07/31 11:52:11;;;;;;;0.57;0.55;;;20.20;99.90;;;;;;5149091;28;20035;-86
2022/07/31 11:54:38;;;;;;;0.47;0.40;;;20.10;99.90;;;;;;5149781;28;20035;-86
2022/07/31 11:57:05;;;;;;;0.40;0.32;;;20.10;99.90;;;;;;5132500;28;20032;-87
2022/07/31 11:59:34;;;;;;;0.63;0.50;;;20.10;99.90;;;;;;5149269;28;20047;-86
2022/07/31 12:02:03;;;;;;;0.63;0.50;;;20.10;99.90;;;;;;5132274;28;20035;-86
2022/07/31 12:04:31;;;;;;;0.75;0.60;;;20.00;99.90;;;;;;5132319;28;20410;-87
2022/07/31 12:06:59;;;;;;;0.40;0.40;;;20.10;99.90;;;;;;5132438;28;20032;-86
2022/07/31 12:09:26;;;;;;;1.10;0.68;;;20.10;99.90;;;;;;5149117;28;20047;-87
2022/07/31 12:11:52;;;;;;;1.83;1.08;;;20.10;99.90;;;;;;5149703;28;20044;-87
2022/07/31 12:14:37;;;;;;;1.35;0.85;;;20.10;99.90;;;;;;5132319;28;20442;-86
2022/07/31 12:17:06;;;;;;;1.67;1.02;;;20.10;99.90;;;;;;5132336;28;20035;-88
2022/07/31 12:19:35;;;;;;;0.93;0.60;;;20.10;99.90;;;;;;5132413;28;20066;-88
2022/07/31 12:22:20;;;;;;;0.88;0.65;;;20.00;99.90;;;;;;5149817;28;20046;-88
2022/07/31 12:24:58;;;;;;;1.05;0.55;;;20.00;99.90;;;;;;5149266;28;20403;-86
2022/07/31 12:27:25;;;;;;;0.98;0.52;;;19.90;99.90;;;;;;5132374;28;20047;-87
2022/07/31 12:29:52;;;;;;;0.65;0.50;;;19.90;99.90;;;;;;5148897;28;20063;-87
2022/07/31 12:32:24;;;;;;;0.40;0.40;;;19.90;99.90;;;;;;5131808;28;20039;-87
2022/07/31 12:35:03;;;;;;;1.13;0.80;;;19.80;99.90;;;;;;5132510;28;20126;-88
2022/07/31 12:37:40;;;;;;;0.45;0.45;;;19.80;99.90;;;;;;5131301;28;20503;-86
2022/07/31 12:40:07;;;;;;;0.85;0.60;;;19.80;99.90;;;;;;5131903;28;20040;-86
2022/07/31 12:42:37;;;;;;;0.88;0.60;;;19.90;99.90;;;;;;5131782;28;20035;-88
2022/07/31 12:45:05;;;;;;;0.65;0.50;;;19.80;99.90;;;;;;5131768;28;20078;-89
2022/07/31 12:47:33;;;;;;;0.43;0.43;;;19.80;99.90;;;;;;5166205;27;20471;-89
2022/07/31 12:50:00;;;;;;;0.95;0.70;;;19.80;99.90;;;;;;5148878;28;20071;-89
2022/07/31 12:52:29;;;;;;;0.82;0.75;;;19.70;99.90;;;;;;5148764;28;20108;-86
2022/07/31 12:54:57;;;;;;;1.02;0.77;;;19.60;99.90;;;;;;5131903;28;20035;-86
2022/07/31 12:57:24;;;;;;;0.47;0.40;;;19.50;99.90;;;;;;5131658;28;20038;-86